Time;durP1;ratioP1;P1;durP2;ratioP2;P2;SDS_P1;SDS_P2;PMS_P1;PMS_P2;Temp;Humidity;BMP_temperature;BMP_pressure;BME280_temperature;BME280_humidity;BME280_pressure;Samples;Min_cycle;Max_cycle;Signal;HPM_P1;HPM_P2
2023/09/12 00:01:06;;;;;;;5.20;4.53;;;21.40;99.90;;;;;;5033038;28;20164;-71
2023/09/12 00:03:32;;;;;;;8.00;4.83;;;21.40;99.90;;;;;;5034495;28;20578;-72
2023/09/12 00:05:59;;;;;;;5.50;4.90;;;21.30;99.90;;;;;;5034665;28;20764;-73
2023/09/12 00:08:25;;;;;;;6.50;5.80;;;21.30;99.90;;;;;;5033675;28;20421;-73
2023/09/12 00:11:00;;;;;;;6.40;5.60;;;21.20;99.90;;;;;;5033615;28;20513;-72
2023/09/12 00:13:25;;;;;;;9.13;6.90;;;21.20;99.90;;;;;;5033173;28;20450;-73
2023/09/12 00:15:50;;;;;;;9.93;7.27;;;21.10;99.90;;;;;;5036755;28;20867;-73
2023/09/12 00:18:16;;;;;;;6.23;5.43;;;21.10;99.90;;;;;;5040973;28;20242;-71
2023/09/12 00:20:41;;;;;;;8.93;6.23;;;21.10;99.90;;;;;;5034148;28;20195;-72
2023/09/12 00:23:07;;;;;;;6.47;5.60;;;21.00;99.90;;;;;;5026617;28;20669;-72
2023/09/12 00:25:32;;;;;;;8.00;6.83;;;21.00;99.90;;;;;;5034134;28;20167;-73
2023/09/12 00:27:58;;;;;;;6.13;5.53;;;21.00;99.90;;;;;;5033041;28;20163;-72
2023/09/12 00:30:23;;;;;;;7.60;5.87;;;20.90;99.90;;;;;;5034366;28;20749;-74
2023/09/12 00:32:49;;;;;;;6.10;5.37;;;20.90;99.90;;;;;;5032800;28;20270;-73
2023/09/12 00:35:15;;;;;;;10.20;6.37;;;20.90;99.90;;;;;;5033392;28;20203;-73
2023/09/12 00:37:40;;;;;;;13.00;7.87;;;20.90;99.90;;;;;;5034119;28;20222;-72
2023/09/12 00:40:07;;;;;;;10.30;7.47;;;20.80;99.90;;;;;;5033981;28;20213;-72
2023/09/12 00:42:32;;;;;;;9.33;8.30;;;20.80;99.90;;;;;;5033651;28;20246;-72
2023/09/12 00:44:58;;;;;;;10.57;9.20;;;20.70;99.90;;;;;;5033564;28;20928;-72
2023/09/12 00:47:24;;;;;;;11.37;7.30;;;20.80;99.90;;;;;;5031599;28;20171;-73
2023/09/12 00:49:50;;;;;;;10.93;9.80;;;20.70;99.90;;;;;;5033740;28;20195;-72
2023/09/12 00:52:17;;;;;;;12.00;8.63;;;20.70;99.90;;;;;;5033608;28;20414;-73
2023/09/12 00:54:43;;;;;;;7.90;7.10;;;20.70;99.90;;;;;;5032074;28;20972;-73
2023/09/12 00:57:09;;;;;;;8.07;6.90;;;20.70;99.90;;;;;;5033618;28;20421;-72
2023/09/12 00:59:34;;;;;;;12.83;8.50;;;20.60;99.90;;;;;;5033368;28;20206;-72
2023/09/12 01:02:01;;;;;;;11.23;8.50;;;20.60;99.90;;;;;;5032385;28;20634;-72
2023/09/12 01:04:27;;;;;;;14.80;8.70;;;20.60;99.90;;;;;;5032039;28;20547;-73
2023/09/12 01:06:53;;;;;;;10.20;8.77;;;20.60;99.90;;;;;;5033389;28;20768;-73
2023/09/12 01:09:18;;;;;;;17.40;10.37;;;20.60;99.90;;;;;;5033553;28;20468;-71
2023/09/12 01:11:44;;;;;;;10.33;8.67;;;20.50;99.90;;;;;;5033475;28;20171;-72
2023/09/12 01:14:10;;;;;;;13.63;9.10;;;20.50;99.90;;;;;;5040690;28;20213;-72
2023/09/12 01:16:35;;;;;;;10.77;8.73;;;20.50;99.90;;;;;;5033452;28;20422;-73
2023/09/12 01:19:01;;;;;;;10.90;8.77;;;20.50;99.90;;;;;;5031947;28;20674;-71
2023/09/12 01:21:45;;;;;;;17.00;10.30;;;20.50;99.90;;;;;;5030846;28;20222;-72
2023/09/12 01:24:52;;;;;;;9.40;7.87;;;20.50;99.90;;;;;;5031043;28;20505;-72
2023/09/12 01:27:35;;;;;;;16.13;10.10;;;20.40;99.90;;;;;;5033058;28;20501;-72
2023/09/12 01:30:06;;;;;;;9.63;8.53;;;20.40;99.90;;;;;;5032843;28;20406;-72
2023/09/12 01:32:32;;;;;;;14.37;8.87;;;20.30;99.90;;;;;;5032935;28;20472;-72
2023/09/12 01:34:58;;;;;;;14.53;9.87;;;20.30;99.90;;;;;;5031844;28;20441;-72
2023/09/12 01:37:23;;;;;;;12.33;9.20;;;20.30;99.90;;;;;;5032779;28;20406;-71
2023/09/12 01:39:49;;;;;;;12.80;8.67;;;20.30;99.90;;;;;;5032741;28;20209;-72
2023/09/12 01:42:17;;;;;;;11.87;9.20;;;20.20;99.90;;;;;;5032700;28;20206;-72
2023/09/12 01:44:44;;;;;;;12.53;9.73;;;20.20;99.90;;;;;;5031355;28;20278;-72
2023/09/12 01:47:11;;;;;;;14.73;10.40;;;20.20;99.90;;;;;;5032707;28;20460;-71
2023/09/12 01:49:41;;;;;;;11.00;9.57;;;20.20;99.90;;;;;;5032334;28;20402;-72
2023/09/12 01:52:07;;;;;;;15.60;11.23;;;20.20;99.90;;;;;;5032703;28;20798;-74
2023/09/12 01:54:34;;;;;;;11.67;9.20;;;20.20;99.90;;;;;;5032265;28;20492;-72
2023/09/12 01:57:01;;;;;;;11.33;9.07;;;20.20;99.90;;;;;;5032578;28;20448;-72
2023/09/12 01:59:27;;;;;;;12.30;9.07;;;20.20;99.90;;;;;;5032584;28;20523;-71
2023/09/12 02:01:53;;;;;;;15.37;9.83;;;20.10;99.90;;;;;;5032524;28;20406;-71
2023/09/12 02:04:18;;;;;;;14.03;9.10;;;20.10;99.90;;;;;;5031323;28;20421;-72
2023/09/12 02:06:44;;;;;;;10.13;8.83;;;20.10;99.90;;;;;;5032550;28;20693;-72
2023/09/12 02:09:09;;;;;;;10.57;8.53;;;20.10;99.90;;;;;;5032362;28;20176;-72
2023/09/12 02:11:35;;;;;;;13.80;10.13;;;20.10;99.90;;;;;;5032244;28;20182;-71
2023/09/12 02:14:00;;;;;;;15.80;11.27;;;20.00;99.90;;;;;;5030842;28;20593;-71
2023/09/12 02:16:26;;;;;;;12.30;9.83;;;20.00;99.90;;;;;;5033704;28;20195;-72
2023/09/12 02:18:51;;;;;;;14.90;9.23;;;20.00;99.90;;;;;;5036468;28;20278;-71
2023/09/12 02:21:17;;;;;;;16.23;11.60;;;20.00;99.90;;;;;;5031841;28;20167;-72
2023/09/12 02:23:42;;;;;;;16.97;10.77;;;20.00;99.90;;;;;;5030606;28;20725;-73
2023/09/12 02:26:08;;;;;;;12.63;10.33;;;20.00;99.90;;;;;;5031530;28;20357;-72
2023/09/12 02:28:33;;;;;;;11.30;9.03;;;20.00;99.90;;;;;;5032076;28;20540;-72
2023/09/12 02:30:59;;;;;;;13.57;11.17;;;20.00;99.90;;;;;;5032130;28;20175;-72
2023/09/12 02:33:24;;;;;;;13.87;10.00;;;20.00;99.90;;;;;;5031524;28;20237;-73
2023/09/12 02:35:50;;;;;;;12.47;9.93;;;19.90;99.90;;;;;;5012318;28;20175;-72
2023/09/12 02:38:17;;;;;;;13.27;9.33;;;19.90;99.90;;;;;;5012249;28;20651;-71
2023/09/12 02:40:42;;;;;;;14.60;9.33;;;19.90;99.90;;;;;;5012080;28;20200;-72
2023/09/12 02:43:08;;;;;;;11.27;10.00;;;19.90;99.90;;;;;;5011866;28;20757;-72
2023/09/12 02:45:33;;;;;;;11.83;9.70;;;19.90;99.90;;;;;;5012153;28;20196;-73
2023/09/12 02:47:59;;;;;;;15.77;9.53;;;19.90;99.90;;;;;;5012165;28;20172;-71
2023/09/12 02:50:24;;;;;;;17.23;9.13;;;19.90;99.90;;;;;;5012133;28;20172;-72
2023/09/12 02:52:50;;;;;;;13.13;10.80;;;19.90;99.90;;;;;;5011971;28;20183;-72
2023/09/12 02:55:16;;;;;;;14.40;11.23;;;19.90;99.90;;;;;;5011673;28;20266;-72
2023/09/12 02:57:41;;;;;;;20.07;11.37;;;19.90;99.90;;;;;;5011953;28;20242;-72
2023/09/12 03:00:08;;;;;;;19.80;12.03;;;19.90;99.90;;;;;;5011990;28;20675;-73
2023/09/12 03:02:34;;;;;;;16.53;10.83;;;19.90;99.90;;;;;;5010647;28;20267;-71
2023/09/12 03:05:01;;;;;;;14.00;10.77;;;19.90;99.90;;;;;;5011803;28;20502;-72
2023/09/12 03:07:27;;;;;;;14.00;9.70;;;19.90;99.90;;;;;;5012039;28;20169;-72
2023/09/12 03:09:52;;;;;;;13.33;9.63;;;19.90;99.90;;;;;;5011881;28;20411;-72
2023/09/12 03:12:18;;;;;;;15.50;11.17;;;20.00;99.90;;;;;;5030924;28;20180;-73
2023/09/12 03:14:43;;;;;;;15.37;9.73;;;20.00;99.90;;;;;;5031374;28;20189;-73
2023/09/12 03:17:09;;;;;;;13.20;10.20;;;20.00;99.90;;;;;;5032576;28;20187;-73
2023/09/12 03:19:34;;;;;;;13.30;10.53;;;20.10;99.90;;;;;;5031356;28;20227;-72
2023/09/12 03:22:00;;;;;;;15.80;9.07;;;20.10;99.90;;;;;;5031501;28;20217;-72
2023/09/12 03:24:25;;;;;;;17.53;10.80;;;20.10;99.90;;;;;;5031037;28;20212;-73
2023/09/12 03:26:51;;;;;;;12.93;9.37;;;20.20;99.90;;;;;;5031476;28;20164;-72
2023/09/12 03:29:17;;;;;;;12.07;9.33;;;20.20;99.90;;;;;;5031426;28;20587;-72
2023/09/12 03:31:43;;;;;;;14.63;10.30;;;20.20;99.90;;;;;;5031468;28;20448;-72
2023/09/12 03:34:08;;;;;;;15.70;10.00;;;20.20;99.90;;;;;;5031125;28;20322;-72
2023/09/12 03:36:34;;;;;;;15.13;10.20;;;20.20;99.90;;;;;;5031483;28;20168;-72
2023/09/12 03:39:00;;;;;;;15.47;10.00;;;20.20;99.90;;;;;;5031292;28;20205;-73
2023/09/12 03:41:25;;;;;;;13.50;9.83;;;20.30;99.90;;;;;;5031410;28;20229;-73
2023/09/12 03:43:54;;;;;;;12.97;10.50;;;20.30;99.90;;;;;;5031077;28;20183;-72
2023/09/12 03:46:20;;;;;;;15.47;10.57;;;20.30;99.90;;;;;;5031398;28;20607;-73
2023/09/12 03:48:45;;;;;;;10.70;9.30;;;20.40;99.90;;;;;;5029597;28;20477;-73
2023/09/12 03:51:12;;;;;;;13.90;9.80;;;20.40;99.90;;;;;;5031234;28;20172;-72
2023/09/12 03:53:37;;;;;;;11.57;8.70;;;20.40;99.90;;;;;;5030804;28;20270;-72
2023/09/12 03:56:03;;;;;;;11.60;9.70;;;20.40;99.90;;;;;;5031350;28;20972;-71
2023/09/12 03:58:28;;;;;;;10.60;8.50;;;20.40;99.90;;;;;;5033218;28;20207;-73
2023/09/12 04:00:54;;;;;;;15.37;9.87;;;20.50;99.90;;;;;;5034804;28;20514;-73
2023/09/12 04:03:20;;;;;;;13.93;9.70;;;20.50;99.90;;;;;;5034291;28;20180;-73
2023/09/12 04:05:50;;;;;;;16.47;9.17;;;20.50;99.90;;;;;;5034763;28;20159;-73
2023/09/12 04:08:16;;;;;;;11.70;7.80;;;20.60;99.90;;;;;;5034574;28;20442;-73
2023/09/12 04:10:42;;;;;;;11.67;8.60;;;20.60;99.90;;;;;;5029322;28;20473;-72
2023/09/12 04:13:07;;;;;;;12.77;8.90;;;20.60;99.90;;;;;;5014563;28;20172;-73
2023/09/12 04:15:33;;;;;;;10.80;8.57;;;20.60;99.90;;;;;;5017460;28;20924;-72
2023/09/12 04:17:59;;;;;;;12.37;9.23;;;20.70;99.90;;;;;;5031738;28;20218;-73
2023/09/12 04:20:24;;;;;;;9.60;8.60;;;20.70;99.90;;;;;;5034237;28;20199;-73
2023/09/12 04:22:50;;;;;;;11.10;8.43;;;20.70;99.90;;;;;;5029712;28;20175;-72
2023/09/12 04:25:15;;;;;;;10.30;8.40;;;20.70;99.90;;;;;;5033933;28;20195;-72
2023/09/12 04:27:41;;;;;;;14.77;9.27;;;20.70;99.90;;;;;;5034208;28;20172;-72
2023/09/12 04:30:08;;;;;;;10.47;7.60;;;20.80;99.90;;;;;;5034199;28;20728;-73
2023/09/12 04:32:33;;;;;;;11.00;8.77;;;20.80;99.90;;;;;;5024725;28;20776;-72
2023/09/12 04:34:59;;;;;;;10.90;8.53;;;20.80;99.90;;;;;;5033523;28;20430;-73
2023/09/12 04:37:25;;;;;;;9.27;8.17;;;20.80;99.90;;;;;;5033715;28;20834;-73
2023/09/12 04:39:51;;;;;;;11.53;8.20;;;20.80;99.90;;;;;;5033995;28;20200;-73
2023/09/12 04:42:16;;;;;;;10.40;7.77;;;20.80;99.90;;;;;;5033839;28;20259;-73
2023/09/12 04:44:42;;;;;;;14.30;10.27;;;20.90;99.90;;;;;;5033553;28;20200;-72
2023/09/12 04:47:09;;;;;;;15.03;11.47;;;20.80;99.90;;;;;;5033997;28;20164;-73
2023/09/12 04:49:34;;;;;;;15.77;11.10;;;20.90;99.90;;;;;;5034787;28;20171;-73
2023/09/12 04:52:00;;;;;;;13.63;9.80;;;20.80;99.90;;;;;;5034232;28;20568;-72
2023/09/12 04:54:26;;;;;;;12.70;8.17;;;20.80;99.90;;;;;;5033075;28;20210;-71
2023/09/12 04:56:51;;;;;;;9.33;7.80;;;20.80;99.90;;;;;;5033620;28;20188;-72
2023/09/12 04:59:17;;;;;;;8.07;7.10;;;20.80;99.90;;;;;;5032159;28;20214;-73
2023/09/12 05:01:43;;;;;;;9.57;8.37;;;20.80;99.90;;;;;;5033703;28;20209;-73
2023/09/12 05:04:09;;;;;;;12.33;9.20;;;20.70;99.90;;;;;;5033337;28;20246;-73
2023/09/12 05:06:35;;;;;;;9.57;7.33;;;20.70;99.90;;;;;;5033685;28;20163;-73
2023/09/12 05:09:00;;;;;;;10.30;8.57;;;20.80;99.90;;;;;;5032478;28;20946;-73
2023/09/12 05:11:26;;;;;;;11.50;8.97;;;20.80;99.90;;;;;;5033544;28;20250;-72
2023/09/12 05:13:51;;;;;;;9.67;7.27;;;20.80;99.90;;;;;;5033184;28;20191;-73
2023/09/12 05:16:17;;;;;;;16.63;8.70;;;20.80;99.90;;;;;;5032754;28;20207;-73
2023/09/12 05:18:43;;;;;;;7.77;6.90;;;20.80;99.90;;;;;;5032190;28;20211;-73
2023/09/12 05:21:08;;;;;;;11.60;7.73;;;20.80;99.90;;;;;;5033166;28;20621;-73
2023/09/12 05:23:34;;;;;;;13.10;8.27;;;20.80;99.90;;;;;;5032800;28;20685;-73
2023/09/12 05:25:59;;;;;;;14.33;7.13;;;20.80;99.90;;;;;;5033333;28;20170;-72
2023/09/12 05:28:25;;;;;;;8.80;7.03;;;20.90;99.90;;;;;;5033148;28;20167;-73
2023/09/12 05:30:50;;;;;;;11.23;7.47;;;20.90;99.90;;;;;;5038723;28;20221;-72
2023/09/12 05:33:16;;;;;;;9.27;6.80;;;21.00;99.90;;;;;;5032435;28;20210;-72
2023/09/12 05:35:44;;;;;;;7.30;6.00;;;21.00;99.90;;;;;;5032821;28;20203;-72
2023/09/12 05:38:09;;;;;;;7.67;5.60;;;21.10;99.90;;;;;;5032823;28;20179;-72
2023/09/12 05:40:35;;;;;;;9.13;7.30;;;21.20;99.90;;;;;;5032789;28;20450;-73
2023/09/12 05:43:00;;;;;;;6.93;5.70;;;21.30;99.90;;;;;;5032651;28;20168;-72
2023/09/12 05:45:26;;;;;;;7.40;6.63;;;21.40;99.90;;;;;;5032852;28;20255;-72
2023/09/12 05:47:52;;;;;;;14.03;7.47;;;21.50;99.90;;;;;;5032908;28;20164;-72
2023/09/12 05:50:17;;;;;;;10.67;8.23;;;21.70;99.90;;;;;;5032740;28;20176;-71
2023/09/12 05:52:43;;;;;;;11.10;7.80;;;21.80;99.90;;;;;;5031618;28;20282;-73
2023/09/12 05:55:08;;;;;;;8.67;7.77;;;22.00;99.90;;;;;;5032361;28;20230;-72
2023/09/12 05:57:34;;;;;;;11.00;8.57;;;22.20;99.90;;;;;;5032740;28;20255;-73
2023/09/12 06:00:00;;;;;;;11.90;8.97;;;22.40;99.90;;;;;;5032566;28;20654;-73
2023/09/12 06:02:27;;;;;;;15.63;9.87;;;22.60;99.90;;;;;;5032546;28;20168;-72
2023/09/12 06:04:52;;;;;;;13.50;11.27;;;22.70;99.90;;;;;;5032261;28;20492;-73
2023/09/12 06:07:19;;;;;;;15.20;11.73;;;22.90;99.90;;;;;;5032513;28;20406;-73
2023/09/12 06:09:44;;;;;;;16.80;11.80;;;23.00;99.90;;;;;;5031244;28;20172;-73
2023/09/12 06:12:10;;;;;;;18.67;14.17;;;23.10;99.90;;;;;;5032427;28;20779;-73
2023/09/12 06:14:36;;;;;;;16.57;12.23;;;23.20;99.90;;;;;;5032010;28;20313;-72
2023/09/12 06:17:01;;;;;;;14.23;12.10;;;23.30;99.90;;;;;;5037618;28;20190;-72
2023/09/12 06:19:27;;;;;;;13.63;10.37;;;23.40;99.90;;;;;;5035168;28;20243;-73
2023/09/12 06:21:52;;;;;;;16.10;12.83;;;23.40;99.90;;;;;;5032215;28;20258;-73
2023/09/12 06:24:21;;;;;;;15.63;9.70;;;23.40;99.90;;;;;;5031895;28;20358;-73
2023/09/12 06:26:47;;;;;;;13.60;9.73;;;23.40;99.90;;;;;;5032255;28;20172;-72
2023/09/12 06:29:13;;;;;;;13.07;10.10;;;23.50;99.90;;;;;;5032091;28;20783;-72
2023/09/12 06:31:41;;;;;;;12.70;10.87;;;23.70;99.90;;;;;;5032092;28;20183;-73
2023/09/12 06:34:06;;;;;;;15.73;11.80;;;23.90;99.90;;;;;;5030427;28;20550;-73
2023/09/12 06:36:32;;;;;;;17.57;12.90;;;24.10;99.90;;;;;;5032019;28;20490;-73
2023/09/12 06:38:58;;;;;;;15.50;11.47;;;24.40;99.90;;;;;;5032047;28;20294;-72
2023/09/12 06:41:24;;;;;;;13.67;10.13;;;24.60;99.90;;;;;;5030696;28;20172;-73
2023/09/12 06:43:50;;;;;;;17.80;11.70;;;24.80;99.90;;;;;;5031612;28;20418;-73
2023/09/12 06:46:19;;;;;;;13.80;9.77;;;25.00;99.90;;;;;;5032026;28;20924;-72
2023/09/12 06:48:45;;;;;;;12.30;9.43;;;25.20;99.90;;;;;;5031990;28;20179;-73
2023/09/12 06:51:12;;;;;;;11.20;9.50;;;25.40;99.90;;;;;;5031196;28;20430;-73
2023/09/12 06:53:37;;;;;;;12.37;9.40;;;25.60;99.90;;;;;;5035801;28;20437;-72
2023/09/12 06:56:06;;;;;;;10.27;8.13;;;25.80;99.90;;;;;;5036674;28;20522;-73
2023/09/12 06:58:32;;;;;;;9.33;7.70;;;26.00;99.90;;;;;;5039784;28;20181;-73
2023/09/12 07:01:05;;;;;;;11.47;8.23;;;26.10;99.90;;;;;;5025698;28;20462;-73
2023/09/12 07:03:32;;;;;;;9.70;7.50;;;26.20;99.90;;;;;;5029980;28;20922;-73
2023/09/12 07:05:57;;;;;;;8.43;7.53;;;26.20;99.90;;;;;;5031619;28;20781;-73
2023/09/12 07:08:23;;;;;;;10.87;8.87;;;26.20;99.90;;;;;;5031532;28;20402;-72
2023/09/12 07:10:48;;;;;;;9.97;7.67;;;26.30;99.90;;;;;;5031507;28;20183;-72
2023/09/12 07:13:14;;;;;;;8.60;7.80;;;26.40;99.90;;;;;;5031172;28;20277;-72
2023/09/12 07:15:40;;;;;;;7.47;6.60;;;26.60;99.90;;;;;;5031573;28;20180;-72
2023/09/12 07:18:06;;;;;;;8.07;6.80;;;27.10;99.90;;;;;;5030506;28;20645;-73
2023/09/12 07:20:32;;;;;;;7.93;7.00;;;27.80;99.90;;;;;;5031354;28;20754;-73
2023/09/12 07:22:57;;;;;;;8.80;6.90;;;28.30;99.90;;;;;;5028060;28;20509;-70
2023/09/12 07:25:23;;;;;;;7.00;6.30;;;28.70;99.90;;;;;;5030197;28;20791;-70
2023/09/12 07:27:49;;;;;;;8.03;7.20;;;28.90;99.90;;;;;;5032057;28;20189;-70
2023/09/12 07:30:15;;;;;;;7.83;6.47;;;29.10;99.90;;;;;;5030292;28;20509;-71
2023/09/12 07:32:41;;;;;;;7.23;6.07;;;29.10;99.90;;;;;;5031542;28;20496;-70
2023/09/12 07:35:07;;;;;;;6.67;6.07;;;29.10;99.90;;;;;;5030336;28;20568;-70
2023/09/12 07:37:32;;;;;;;6.57;5.90;;;29.00;99.90;;;;;;5035107;28;20171;-70
2023/09/12 07:39:58;;;;;;;5.63;5.20;;;28.80;99.90;;;;;;5035259;28;20239;-71
2023/09/12 07:42:24;;;;;;;5.27;4.77;;;28.90;99.90;;;;;;5034916;28;20174;-70
2023/09/12 07:44:50;;;;;;;11.30;6.60;;;29.20;99.90;;;;;;5034665;28;20226;-70
2023/09/12 07:47:15;;;;;;;6.20;5.27;;;29.40;99.90;;;;;;5035094;28;20414;-70
2023/09/12 07:49:41;;;;;;;5.73;5.23;;;29.60;99.90;;;;;;5036482;28;20188;-70
2023/09/12 07:52:07;;;;;;;7.37;5.67;;;29.70;99.90;;;;;;5033896;28;20638;-70
2023/09/12 07:54:32;;;;;;;6.23;5.43;;;29.70;99.90;;;;;;5034385;28;20686;-70
2023/09/12 07:56:58;;;;;;;6.43;5.20;;;30.10;99.90;;;;;;5033616;28;20210;-71
2023/09/12 07:59:24;;;;;;;6.70;5.70;;;30.50;99.90;;;;;;5034462;28;20203;-70
2023/09/12 08:01:49;;;;;;;7.93;6.80;;;30.80;99.90;;;;;;5034381;28;20172;-70
2023/09/12 08:04:15;;;;;;;7.73;6.57;;;31.00;99.90;;;;;;5036399;28;20193;-70
2023/09/12 08:06:41;;;;;;;10.00;6.40;;;31.70;99.90;;;;;;5036545;28;20555;-71
2023/09/12 08:09:07;;;;;;;7.00;5.60;;;32.50;99.90;;;;;;5034071;28;20233;-71
2023/09/12 08:11:32;;;;;;;7.53;4.87;;;33.30;98.90;;;;;;5034262;28;20419;-71
2023/09/12 08:13:58;;;;;;;6.20;4.13;;;33.80;94.80;;;;;;5038083;28;20437;-71
2023/09/12 08:16:23;;;;;;;5.80;4.67;;;34.20;91.80;;;;;;5034269;28;20178;-71
2023/09/12 08:18:49;;;;;;;4.83;4.33;;;34.40;87.30;;;;;;5034370;28;20172;-70
2023/09/12 08:21:14;;;;;;;4.87;4.37;;;34.50;81.70;;;;;;5041953;28;20198;-71
2023/09/12 08:23:40;;;;;;;4.70;4.30;;;34.40;79.00;;;;;;5034388;28;20533;-71
2023/09/12 08:26:05;;;;;;;5.83;4.47;;;34.30;76.10;;;;;;5034354;28;20512;-71
2023/09/12 08:28:31;;;;;;;4.30;4.00;;;34.70;75.50;;;;;;5033932;28;20164;-71
2023/09/12 08:30:56;;;;;;;4.10;3.60;;;35.30;71.90;;;;;;5040256;28;20236;-69
2023/09/12 08:33:22;;;;;;;4.03;3.70;;;35.80;68.80;;;;;;5035460;28;20195;-70
2023/09/12 08:35:49;;;;;;;3.80;3.50;;;36.20;65.30;;;;;;5035361;28;20176;-69
2023/09/12 08:38:14;;;;;;;4.40;4.10;;;37.10;64.00;;;;;;5034047;28;20654;-69
2023/09/12 08:40:40;;;;;;;3.50;3.20;;;38.10;59.30;;;;;;5033237;28;20536;-70
2023/09/12 08:43:06;;;;;;;2.87;2.67;;;39.20;56.80;;;;;;5046827;28;20171;-70
2023/09/12 08:45:31;;;;;;;4.47;3.77;;;40.50;54.90;;;;;;5053978;28;20175;-70
2023/09/12 08:48:00;;;;;;;3.80;3.27;;;41.60;51.00;;;;;;5053861;28;20238;-70
2023/09/12 08:50:30;;;;;;;3.17;2.93;;;42.90;48.50;;;;;;5053919;28;20721;-70
2023/09/12 08:52:56;;;;;;;4.23;3.33;;;44.10;45.50;;;;;;5053337;28;20436;-68
2023/09/12 08:55:21;;;;;;;3.87;3.17;;;45.30;43.00;;;;;;5053502;28;20429;-68
2023/09/12 08:57:50;;;;;;;3.33;3.07;;;46.20;40.40;;;;;;5053455;28;20197;-68
2023/09/12 09:00:16;;;;;;;3.33;3.03;;;46.90;38.40;;;;;;5052462;28;20589;-68
2023/09/12 09:02:43;;;;;;;3.30;3.00;;;47.60;36.40;;;;;;5041988;28;20471;-68
2023/09/12 09:05:11;;;;;;;3.27;3.07;;;48.30;35.50;;;;;;5033383;28;20458;-68
2023/09/12 09:07:41;;;;;;;4.10;3.73;;;48.00;33.80;;;;;;5033808;28;20413;-68
2023/09/12 09:10:14;;;;;;;3.30;3.10;;;47.30;33.20;;;;;;5033532;28;20455;-68
2023/09/12 09:12:40;;;;;;;3.57;3.10;;;46.90;33.80;;;;;;5033581;28;20429;-68
2023/09/12 09:15:24;;;;;;;2.87;2.67;;;47.10;33.80;;;;;;5033346;28;20492;-68
2023/09/12 09:17:51;;;;;;;9.00;3.03;;;47.30;33.30;;;;;;5039802;28;20502;-68
2023/09/12 09:20:27;;;;;;;2.63;2.43;;;46.80;33.00;;;;;;5036299;28;20458;-68
2023/09/12 09:22:58;;;;;;;2.80;2.60;;;46.80;33.30;;;;;;5033953;28;20419;-70
2023/09/12 09:25:24;;;;;;;3.80;3.43;;;46.20;33.00;;;;;;5043398;28;20400;-68
2023/09/12 09:27:49;;;;;;;3.43;3.00;;;45.50;33.30;;;;;;5032761;28;20451;-68
2023/09/12 09:30:15;;;;;;;2.90;2.67;;;45.50;33.80;;;;;;5028957;28;20180;-68
2023/09/12 09:32:41;;;;;;;2.67;2.50;;;46.40;33.50;;;;;;5037264;28;20183;-69
2023/09/12 09:35:07;;;;;;;3.23;3.03;;;47.70;32.60;;;;;;5032775;28;20282;-69
2023/09/12 09:37:33;;;;;;;2.67;2.50;;;49.00;32.10;;;;;;5035751;28;20182;-68
2023/09/12 09:39:59;;;;;;;3.33;3.13;;;50.30;31.10;;;;;;5031574;28;20834;-69
2023/09/12 09:42:29;;;;;;;3.43;3.10;;;51.80;29.90;;;;;;5028549;28;20496;-69
2023/09/12 09:44:54;;;;;;;3.33;3.10;;;53.10;29.10;;;;;;5032550;28;20202;-69
2023/09/12 09:47:20;;;;;;;3.40;3.07;;;54.20;28.20;;;;;;5031578;28;20879;-70
2023/09/12 09:49:46;;;;;;;4.40;3.17;;;55.10;27.20;;;;;;5031568;28;20175;-70
2023/09/12 09:52:12;;;;;;;3.60;3.30;;;55.90;26.10;;;;;;5033732;28;20629;-69
2023/09/12 09:54:44;;;;;;;3.67;3.43;;;56.30;25.30;;;;;;5032835;28;20512;-69
2023/09/12 09:57:09;;;;;;;3.70;3.40;;;56.80;25.00;;;;;;5032714;28;20193;-69
2023/09/12 09:59:35;;;;;;;4.27;4.00;;;57.10;24.40;;;;;;5032411;28;20449;-70
2023/09/12 10:02:03;;;;;;;3.57;3.10;;;57.30;23.90;;;;;;5032570;28;20167;-70
2023/09/12 10:04:31;;;;;;;4.20;3.90;;;57.60;23.60;;;;;;5052123;28;20231;-70
2023/09/12 10:06:58;;;;;;;3.70;3.40;;;57.80;23.50;;;;;;5052479;28;20401;-70
2023/09/12 10:09:27;;;;;;;3.53;3.33;;;58.00;23.00;;;;;;5051465;28;20842;-70
2023/09/12 10:11:54;;;;;;;3.50;3.30;;;58.20;22.90;;;;;;5052105;28;20420;-70
2023/09/12 10:14:22;;;;;;;4.10;3.90;;;58.30;22.60;;;;;;5052003;28;20424;-70
2023/09/12 10:16:49;;;;;;;3.57;3.37;;;58.50;22.40;;;;;;5051989;28;20761;-70
2023/09/12 10:19:23;;;;;;;3.60;3.40;;;58.50;22.30;;;;;;5051821;28;20456;-70
2023/09/12 10:22:07;;;;;;;3.40;3.20;;;58.40;22.00;;;;;;5051832;28;20427;-70
2023/09/12 10:24:34;;;;;;;3.90;3.60;;;58.30;21.90;;;;;;5051880;28;20412;-70
2023/09/12 10:27:01;;;;;;;3.77;3.50;;;57.80;21.80;;;;;;5051873;28;20413;-69
2023/09/12 10:29:27;;;;;;;3.10;2.90;;;57.10;21.50;;;;;;5050833;28;20783;-69
2023/09/12 10:31:53;;;;;;;2.80;2.70;;;55.70;21.90;;;;;;5051667;28;20408;-69
2023/09/12 10:34:20;;;;;;;3.03;2.83;;;54.60;22.50;;;;;;5051723;28;20686;-69
2023/09/12 10:36:46;;;;;;;2.67;2.47;;;53.20;22.60;;;;;;5051711;28;20194;-69
2023/09/12 10:39:13;;;;;;;2.70;2.50;;;51.90;23.10;;;;;;5051657;28;20479;-69
2023/09/12 10:41:40;;;;;;;3.00;2.80;;;50.80;23.80;;;;;;5051634;28;20957;-69
2023/09/12 10:44:16;;;;;;;2.40;2.30;;;49.90;24.50;;;;;;5052055;28;20549;-69
2023/09/12 10:46:44;;;;;;;2.70;2.40;;;49.50;25.20;;;;;;5051920;28;20862;-69
2023/09/12 10:49:11;;;;;;;3.17;2.97;;;50.00;25.60;;;;;;5051845;28;20380;-69
2023/09/12 10:51:41;;;;;;;3.00;2.80;;;50.70;25.40;;;;;;5051525;28;20438;-69
2023/09/12 10:54:10;;;;;;;2.90;2.70;;;51.60;25.00;;;;;;5051360;28;20455;-70
2023/09/12 10:56:35;;;;;;;3.73;3.43;;;52.20;24.70;;;;;;5051475;28;20399;-70
2023/09/12 10:59:04;;;;;;;3.90;3.60;;;52.90;24.00;;;;;;5051394;28;20397;-70
2023/09/12 11:01:37;;;;;;;3.30;3.10;;;53.50;23.70;;;;;;5051589;28;20194;-70
2023/09/12 11:04:27;;;;;;;3.33;3.13;;;53.80;23.60;;;;;;5051436;28;20440;-70
2023/09/12 11:06:53;;;;;;;3.57;3.27;;;53.90;23.40;;;;;;5052429;28;20406;-69
2023/09/12 11:09:19;;;;;;;4.00;3.70;;;54.00;23.90;;;;;;5055644;28;20416;-69
2023/09/12 11:11:49;;;;;;;3.70;3.50;;;54.20;23.30;;;;;;5055083;28;20167;-69
2023/09/12 11:14:16;;;;;;;3.33;3.13;;;54.50;23.40;;;;;;5055163;28;20448;-72
2023/09/12 11:16:43;;;;;;;3.80;3.60;;;54.90;23.20;;;;;;5055724;28;20383;-70
2023/09/12 11:19:15;;;;;;;3.53;3.23;;;54.80;23.20;;;;;;5055462;28;20424;-69
2023/09/12 11:21:42;;;;;;;3.87;3.67;;;54.90;23.30;;;;;;5054941;28;20401;-69
2023/09/12 11:24:08;;;;;;;3.60;3.40;;;55.30;23.00;;;;;;5054774;28;20433;-69
2023/09/12 11:26:34;;;;;;;4.30;4.00;;;56.00;22.60;;;;;;5052765;28;20424;-70
2023/09/12 11:29:13;;;;;;;4.77;4.47;;;56.60;22.60;;;;;;5035253;28;20182;-70
2023/09/12 11:31:42;;;;;;;4.97;4.60;;;57.30;22.30;;;;;;5035030;28;20178;-69
2023/09/12 11:34:10;;;;;;;4.60;4.40;;;57.80;22.00;;;;;;5028355;28;20441;-69
2023/09/12 11:36:42;;;;;;;4.73;4.47;;;58.10;21.50;;;;;;5034688;28;20410;-69
2023/09/12 11:39:26;;;;;;;5.07;4.57;;;57.90;21.20;;;;;;5035367;28;20476;-70
2023/09/12 11:41:52;;;;;;;4.67;4.37;;;57.50;21.00;;;;;;5035076;28;20447;-69
2023/09/12 11:44:20;;;;;;;4.70;4.30;;;57.40;21.40;;;;;;5033067;28;20461;-69
2023/09/12 11:46:49;;;;;;;4.30;4.00;;;57.40;21.60;;;;;;5033756;28;20464;-69
2023/09/12 11:49:15;;;;;;;4.20;4.00;;;57.30;21.30;;;;;;5035023;28;20384;-69
2023/09/12 11:51:51;;;;;;;4.90;4.60;;;56.90;21.40;;;;;;5034995;28;20417;-69
2023/09/12 11:54:26;;;;;;;4.70;4.40;;;56.20;21.40;;;;;;5034638;28;20460;-70
2023/09/12 11:56:59;;;;;;;4.73;4.43;;;55.80;21.80;;;;;;5027713;28;20833;-69
2023/09/12 11:59:26;;;;;;;4.97;4.67;;;55.40;22.10;;;;;;5015185;28;20450;-69
2023/09/12 12:01:52;;;;;;;5.03;4.77;;;55.50;22.20;;;;;;5015050;28;20399;-69
2023/09/12 12:04:20;;;;;;;4.47;4.17;;;55.70;22.30;;;;;;5014754;28;20435;-70
2023/09/12 12:06:45;;;;;;;4.23;4.00;;;56.30;22.30;;;;;;5014982;28;20944;-69
2023/09/12 12:09:11;;;;;;;4.07;3.87;;;57.00;21.70;;;;;;5020549;28;20416;-69
2023/09/12 12:11:38;;;;;;;4.60;4.20;;;57.30;21.60;;;;;;5033489;28;20167;-69
2023/09/12 12:14:15;;;;;;;4.40;4.10;;;57.50;21.20;;;;;;5034150;28;20578;-69
2023/09/12 12:16:42;;;;;;;4.50;4.20;;;57.70;21.30;;;;;;5028533;28;20417;-69
2023/09/12 12:19:14;;;;;;;4.80;4.50;;;57.80;21.30;;;;;;5035437;28;20453;-69
2023/09/12 12:21:40;;;;;;;4.50;4.20;;;57.20;21.00;;;;;;5035034;28;21170;-70
2023/09/12 12:24:10;;;;;;;4.60;4.30;;;56.40;20.90;;;;;;5031539;28;20433;-69
2023/09/12 12:26:35;;;;;;;4.90;4.60;;;55.30;21.30;;;;;;5031273;28;20418;-71
2023/09/12 12:29:01;;;;;;;4.07;3.87;;;54.10;21.80;;;;;;5043387;28;20468;-69
2023/09/12 12:31:27;;;;;;;4.43;4.00;;;52.90;22.30;;;;;;5034325;28;20159;-69
2023/09/12 12:33:54;;;;;;;4.43;4.10;;;51.70;22.90;;;;;;5033900;28;20418;-69
2023/09/12 12:36:20;;;;;;;4.20;3.90;;;50.70;23.30;;;;;;5033199;28;20573;-69
2023/09/12 12:38:48;;;;;;;4.60;4.20;;;49.50;23.80;;;;;;5034185;28;20432;-69